WMKN/TGG METAR and TAF weather

Enter ICAO airport designator
Station Type Date Time Source
WMKN METAR 2019/08/19 01:00 UTC NOAA

WMKN 190100Z 22004KT 160V260 9999 FEW020 BKN300 27/24 Q1011


Station Type Date Time Source
WMKN Decoded METAR 2019/08/19 01:00 UTC NOAA

Station name not available
Aug 18, 2019 - 09:00 PM EDT / 2019.08.19 0100 UTC
Wind: from the SW (220 degrees) at 5 MPH (4 KT) (direction variable):0
Visibility: greater than 7 mile(s):0
Sky conditions: mostly cloudy
Temperature: 80 F (27 C)
Dew Point: 75 F (24 C)
Relative Humidity: 83%
Pressure (altimeter): 29.85 in. Hg (1011 hPa)
ob: WMKN 190100Z 22004KT 160V260 9999 FEW020 BKN300 27/24 Q1011
cycle: 1

Station Type Date Time Source
WMKN TAF 2019/08/18 18:00 UTC NOAA

TAF WMKN 181700Z 1818/1918 VRB05KT 9999 FEW018

Example: see airport list